Time;durP1;ratioP1;P1;durP2;ratioP2;P2;SDS_P1;SDS_P2;PMS_P1;PMS_P2;Temp;Humidity;BMP_temperature;BMP_pressure;BME280_temperature;BME280_humidity;BME280_pressure;Samples;Min_cycle;Max_cycle;Signal;HPM_P1;HPM_P2
2023/01/08 00:01:09;;;;;;;68.72;34.98;;;;;;;3.84;75.70;94875.59;1761933;80;20977;-47
2023/01/08 00:03:36;;;;;;;65.57;37.08;;;;;;;3.83;76.01;94874.64;1779080;80;21005;-48
2023/01/08 00:06:06;;;;;;;63.83;34.23;;;;;;;3.87;76.05;94874.78;1771360;80;20998;-48
2023/01/08 00:08:33;;;;;;;58.40;32.17;;;;;;;3.91;76.09;94876.88;1751427;80;21301;-48
2023/01/08 00:11:00;;;;;;;53.35;29.42;;;;;;;3.92;75.97;94871.66;1781365;80;20938;-48
2023/01/08 00:13:26;;;;;;;52.65;28.65;;;;;;;3.90;75.83;94873.97;1769670;80;21021;-47
2023/01/08 00:15:53;;;;;;;52.93;30.35;;;;;;;3.90;75.91;94875.34;1773423;80;20966;-48
2023/01/08 00:18:21;;;;;;;53.75;29.65;;;;;;;3.94;75.86;94872.59;1786499;80;21076;-48
2023/01/08 00:20:48;;;;;;;53.60;29.92;;;;;;;4.01;76.22;94876.61;1779751;80;21153;-47
2023/01/08 00:23:16;;;;;;;58.58;32.70;;;;;;;4.09;76.01;94876.14;1767018;80;21026;-49
2023/01/08 00:25:43;;;;;;;103.00;50.60;;;;;;;4.17;76.00;94869.47;1779774;80;21054;-48
2023/01/08 00:28:09;;;;;;;137.80;64.15;;;;;;;4.29;75.80;94872.28;1756012;80;20998;-47
2023/01/08 00:30:36;;;;;;;205.35;83.72;;;;;;;4.41;75.63;94875.87;1767248;80;20947;-48
2023/01/08 00:33:03;;;;;;;146.50;64.80;;;;;;;4.52;75.48;94871.85;1793788;79;21263;-48
2023/01/08 00:35:30;;;;;;;105.10;52.35;;;;;;;4.63;75.10;94872.49;1806351;78;21507;-47
2023/01/08 00:37:56;;;;;;;101.27;48.85;;;;;;;4.74;74.83;94877.83;1813320;79;21107;-49
2023/01/08 00:40:23;;;;;;;113.37;54.88;;;;;;;4.85;74.48;94871.09;1817288;79;21029;-48
2023/01/08 00:42:50;;;;;;;96.28;50.78;;;;;;;4.93;74.11;94878.00;1810127;79;21462;-47
2023/01/08 00:45:16;;;;;;;73.70;39.30;;;;;;;4.93;73.39;94868.45;1818571;79;21195;-49
2023/01/08 00:47:43;;;;;;;67.55;38.45;;;;;;;4.86;73.00;94873.22;1803321;79;20986;-47
2023/01/08 00:50:10;;;;;;;75.37;38.80;;;;;;;4.78;73.02;94875.86;1811473;78;21038;-48
2023/01/08 00:52:38;;;;;;;83.52;46.95;;;;;;;4.77;72.84;94872.34;1796164;79;20939;-48
2023/01/08 00:55:07;;;;;;;86.45;48.33;;;;;;;4.72;72.85;94875.52;1780004;79;20986;-47
2023/01/08 00:57:35;;;;;;;92.05;49.13;;;;;;;4.66;73.04;94874.44;1777225;79;21849;-48
2023/01/08 01:00:06;;;;;;;93.95;48.75;;;;;;;4.63;73.13;94871.73;1801656;79;21037;-48
2023/01/08 01:02:35;;;;;;;95.53;49.00;;;;;;;4.57;73.18;94869.28;1737567;81;20997;-47
2023/01/08 01:05:03;;;;;;;105.58;51.85;;;;;;;4.53;73.22;94868.52;1710443;82;21541;-48
2023/01/08 01:07:32;;;;;;;117.40;56.95;;;;;;;4.44;73.31;94866.28;1733911;82;21075;-49
2023/01/08 01:09:59;;;;;;;109.40;53.10;;;;;;;4.35;73.45;94863.27;1734347;82;21836;-48
2023/01/08 01:12:27;;;;;;;103.62;51.40;;;;;;;4.34;73.91;94869.90;1736160;82;20945;-48
2023/01/08 01:14:53;;;;;;;106.87;51.68;;;;;;;4.37;73.85;94862.28;1744675;81;21643;-48
2023/01/08 01:17:20;;;;;;;89.92;46.60;;;;;;;4.39;74.09;94861.28;1744325;81;21539;-49
2023/01/08 01:19:47;;;;;;;95.67;47.05;;;;;;;4.46;74.34;94861.20;1740005;81;21010;-48
2023/01/08 01:22:14;;;;;;;84.47;43.52;;;;;;;4.54;74.00;94869.49;1749293;81;21250;-48
2023/01/08 01:24:41;;;;;;;81.78;42.75;;;;;;;4.52;73.73;94862.89;1737473;81;21475;-48
2023/01/08 01:27:09;;;;;;;81.78;43.02;;;;;;;4.43;73.71;94859.89;1741326;81;21643;-48
2023/01/08 01:29:36;;;;;;;72.00;40.20;;;;;;;4.29;74.05;94854.00;1709142;82;21036;-47
2023/01/08 01:32:05;;;;;;;71.95;39.65;;;;;;;4.28;74.49;94859.23;1709258;83;21469;-48
2023/01/08 01:34:32;;;;;;;71.92;39.25;;;;;;;4.31;74.35;94858.45;1708652;83;21732;-48
2023/01/08 01:36:58;;;;;;;79.92;41.18;;;;;;;4.28;74.43;94852.44;1698319;83;21041;-47
2023/01/08 01:39:25;;;;;;;70.10;38.60;;;;;;;4.27;74.46;94850.89;1715515;83;21104;-49
2023/01/08 01:41:52;;;;;;;73.15;37.10;;;;;;;4.25;74.55;94844.32;1718485;81;21028;-49
2023/01/08 01:44:41;;;;;;;83.33;41.35;;;;;;;4.21;74.62;94855.23;1713160;83;21175;-48
2023/01/08 01:47:27;;;;;;;77.95;41.58;;;;;;;4.14;74.65;94849.87;1593767;88;21346;-47
2023/01/08 01:50:12;;;;;;;77.20;41.25;;;;;;;4.08;74.96;94843.90;1534635;92;21277;-48
2023/01/08 01:53:02;;;;;;;67.50;37.63;;;;;;;4.06;75.27;94841.56;1507189;93;21120;-48
2023/01/08 01:55:29;;;;;;;68.80;37.67;;;;;;;4.04;75.41;94848.00;1501134;94;21072;-48
2023/01/08 01:58:17;;;;;;;93.33;48.02;;;;;;;4.07;75.75;94839.03;1501258;94;21199;-48
2023/01/08 02:00:43;;;;;;;94.35;48.05;;;;;;;4.12;75.60;94836.47;1483687;94;22241;-48
2023/01/08 02:03:12;;;;;;;93.45;49.15;;;;;;;4.11;75.89;94832.98;1480256;95;21279;-47
2023/01/08 02:05:57;;;;;;;109.60;52.55;;;;;;;4.18;76.06;94834.84;1489745;93;21407;-48
2023/01/08 02:08:38;;;;;;;118.57;54.75;;;;;;;4.21;75.95;94843.59;1507655;93;21133;-48
2023/01/08 02:11:15;;;;;;;122.17;59.90;;;;;;;4.28;76.30;94832.62;1507917;93;21596;-50
2023/01/08 02:13:47;;;;;;;124.60;64.53;;;;;;;4.45;76.20;94832.41;1447589;97;21292;-48
2023/01/08 02:16:19;;;;;;;109.27;57.85;;;;;;;4.60;75.86;94818.83;1441197;98;21152;-47
2023/01/08 02:18:56;;;;;;;101.53;53.95;;;;;;;4.64;75.21;94818.19;1448082;97;21118;-47
2023/01/08 02:21:32;;;;;;;96.70;49.05;;;;;;;4.62;74.94;94825.24;1441938;98;21191;-48
2023/01/08 02:24:38;;;;;;;88.17;46.25;;;;;;;4.57;74.91;94818.28;1459672;95;21066;-48
2023/01/08 02:27:05;;;;;;;106.45;52.70;;;;;;;4.51;74.69;94819.13;1506518;93;21310;-48
2023/01/08 02:29:32;;;;;;;94.70;48.75;;;;;;;4.39;74.68;94820.43;1508401;93;21134;-48
2023/01/08 02:31:58;;;;;;;93.12;48.92;;;;;;;4.34;74.82;94822.24;1522312;92;21194;-47
2023/01/08 02:34:26;;;;;;;83.87;45.80;;;;;;;4.33;75.05;94820.70;1499551;93;21057;-49
2023/01/08 02:36:54;;;;;;;79.32;41.95;;;;;;;4.38;75.16;94818.89;1500467;93;21123;-47
2023/01/08 02:39:35;;;;;;;78.17;44.20;;;;;;;4.44;75.41;94821.34;1512171;92;21310;-48
2023/01/08 02:42:25;;;;;;;79.90;46.08;;;;;;;4.50;74.98;94822.45;1563881;90;21207;-49
2023/01/08 02:45:12;;;;;;;79.70;43.52;;;;;;;4.41;74.70;94819.43;1576360;90;21064;-47
2023/01/08 02:47:50;;;;;;;84.52;44.42;;;;;;;4.30;74.88;94814.70;1546630;92;21505;-48
2023/01/08 02:51:01;;;;;;;92.67;47.17;;;;;;;4.17;75.21;94816.39;1526976;94;21183;-50
2023/01/08 02:53:38;;;;;;;92.08;45.35;;;;;;;4.06;75.62;94815.70;1546702;91;21247;-48
2023/01/08 02:56:17;;;;;;;81.35;42.95;;;;;;;4.06;76.01;94814.34;1595615;87;21048;-47
2023/01/08 02:58:45;;;;;;;82.22;43.90;;;;;;;4.10;76.08;94808.30;1629841;87;21061;-47
2023/01/08 03:01:13;;;;;;;119.10;51.10;;;;;;;4.08;76.37;94820.16;1628098;87;21621;-48
2023/01/08 03:03:41;;;;;;;144.28;59.80;;;;;;;4.08;76.72;94821.52;1633458;87;21166;-48
2023/01/08 03:06:11;;;;;;;128.12;52.98;;;;;;;4.12;76.90;94813.33;1621917;87;21309;-48
2023/01/08 03:08:40;;;;;;;107.78;48.90;;;;;;;4.19;76.60;94809.16;1625604;88;21021;-48
2023/01/08 03:11:11;;;;;;;102.17;46.23;;;;;;;4.16;76.43;94813.48;1637072;85;21218;-48
2023/01/08 03:13:45;;;;;;;81.15;37.73;;;;;;;4.20;76.71;94812.09;1685373;83;21112;-48
2023/01/08 03:16:16;;;;;;;90.25;40.83;;;;;;;4.25;76.47;94800.15;1695633;81;21048;-47
2023/01/08 03:18:48;;;;;;;87.82;40.98;;;;;;;4.30;76.35;94794.86;1725112;82;22501;-48
2023/01/08 03:21:15;;;;;;;85.28;43.78;;;;;;;4.30;76.33;94798.37;1643494;86;21124;-49
2023/01/08 03:23:43;;;;;;;84.50;46.95;;;;;;;4.26;76.60;94796.25;1607372;88;21202;-48
2023/01/08 03:26:10;;;;;;;89.92;48.13;;;;;;;4.27;77.12;94800.52;1635555;86;21446;-49
2023/01/08 03:28:45;;;;;;;90.42;50.95;;;;;;;4.34;77.30;94793.66;1636708;85;21082;-48
2023/01/08 03:31:14;;;;;;;81.65;42.78;;;;;;;4.43;77.23;94791.20;1610159;88;21258;-48
2023/01/08 03:33:41;;;;;;;77.27;41.20;;;;;;;4.45;76.63;94791.56;1613863;88;21134;-48
2023/01/08 03:36:08;;;;;;;72.47;40.12;;;;;;;4.36;76.43;94795.95;1643456;86;21058;-49
2023/01/08 03:38:43;;;;;;;72.22;39.95;;;;;;;4.29;76.62;94794.10;1612366;86;21131;-49
2023/01/08 03:41:13;;;;;;;76.12;42.33;;;;;;;4.24;76.59;94786.96;1572464;89;21550;-49
2023/01/08 03:43:40;;;;;;;82.12;44.40;;;;;;;4.19;77.03;94787.38;1571279;89;21271;-48
2023/01/08 03:46:15;;;;;;;84.30;44.67;;;;;;;4.13;77.19;94785.72;1637581;86;21212;-49
2023/01/08 03:48:42;;;;;;;77.20;42.30;;;;;;;4.09;77.27;94782.23;1521550;93;21600;-48
2023/01/08 03:51:09;;;;;;;77.47;44.08;;;;;;;4.05;77.26;94776.06;1523013;93;21673;-48
2023/01/08 03:53:36;;;;;;;80.35;42.40;;;;;;;4.07;77.83;94775.67;1518111;92;21650;-48
2023/01/08 03:56:03;;;;;;;80.83;43.73;;;;;;;4.10;77.57;94780.30;1521567;93;21692;-48
2023/01/08 03:58:30;;;;;;;84.72;47.53;;;;;;;4.10;77.56;94783.80;1525135;93;21101;-47
2023/01/08 04:00:56;;;;;;;78.35;44.83;;;;;;;4.10;77.86;94782.45;1522527;93;21077;-48
2023/01/08 04:03:23;;;;;;;77.20;44.38;;;;;;;4.09;77.76;94781.48;1516746;92;21181;-48
2023/01/08 04:05:50;;;;;;;87.33;50.70;;;;;;;3.96;77.82;94774.99;1485809;94;21224;-47
2023/01/08 04:08:16;;;;;;;83.58;47.50;;;;;;;3.84;78.14;94780.36;1473578;96;21167;-47
2023/01/08 04:10:44;;;;;;;126.47;63.48;;;;;;;3.78;78.51;94772.45;1483456;94;21234;-48
2023/01/08 04:13:10;;;;;;;127.20;64.35;;;;;;;3.75;78.59;94780.06;1495360;92;21195;-48
2023/01/08 04:15:37;;;;;;;118.25;61.05;;;;;;;3.71;78.81;94772.50;1532466;92;21017;-48
2023/01/08 04:18:04;;;;;;;98.20;52.15;;;;;;;3.72;79.10;94771.33;1595762;87;21074;-48
2023/01/08 04:20:31;;;;;;;119.97;62.00;;;;;;;3.78;79.12;94773.03;1643283;86;21160;-48
2023/01/08 04:22:58;;;;;;;110.22;58.05;;;;;;;3.83;79.33;94775.34;1643742;86;21562;-49
2023/01/08 04:25:25;;;;;;;91.50;49.60;;;;;;;3.89;79.19;94775.83;1661156;83;21001;-47
2023/01/08 04:27:51;;;;;;;131.57;73.02;;;;;;;3.91;79.14;94770.75;1699601;83;20990;-48
2023/01/08 04:30:18;;;;;;;136.95;76.37;;;;;;;3.88;79.08;94774.28;1719148;83;21600;-47
2023/01/08 04:32:45;;;;;;;109.97;61.08;;;;;;;3.88;79.28;94772.92;1719497;83;21148;-48
2023/01/08 04:35:12;;;;;;;93.82;54.70;;;;;;;3.89;79.10;94773.11;1718665;82;21072;-48
2023/01/08 04:37:39;;;;;;;76.33;43.23;;;;;;;3.86;79.09;94776.64;1716053;83;21120;-48
2023/01/08 04:40:08;;;;;;;69.90;41.80;;;;;;;3.89;79.28;94773.11;1691230;83;20994;-48
2023/01/08 04:42:35;;;;;;;77.22;45.12;;;;;;;3.90;79.18;94769.21;1719667;83;21001;-48
2023/01/08 04:45:02;;;;;;;77.08;43.95;;;;;;;3.91;79.39;94770.75;1725106;78;22210;-48
2023/01/08 04:47:29;;;;;;;89.97;51.53;;;;;;;3.94;79.59;94767.25;1780423;78;21116;-48
2023/01/08 04:49:55;;;;;;;111.32;60.73;;;;;;;4.01;79.73;94769.89;1810190;78;21046;-49
2023/01/08 04:52:22;;;;;;;114.92;62.23;;;;;;;4.09;79.54;94767.87;1810050;78;21530;-48
2023/01/08 04:54:49;;;;;;;83.30;46.20;;;;;;;4.14;79.74;94758.67;1801419;79;21483;-48
2023/01/08 04:57:16;;;;;;;67.32;39.65;;;;;;;4.25;79.42;94756.59;1810591;78;21262;-49
2023/01/08 04:59:42;;;;;;;58.55;35.03;;;;;;;4.28;78.85;94756.38;1804157;79;21165;-48
2023/01/08 05:02:09;;;;;;;62.55;35.13;;;;;;;4.26;78.49;94747.84;1807084;78;21044;-48
2023/01/08 05:04:35;;;;;;;64.40;37.35;;;;;;;4.19;78.27;94750.63;1781630;78;21037;-48
2023/01/08 05:07:03;;;;;;;55.50;35.50;;;;;;;4.09;78.48;94750.17;1808693;78;20991;-48
2023/01/08 05:09:30;;;;;;;67.08;40.48;;;;;;;4.03;78.48;94753.92;1803254;79;22187;-48
2023/01/08 05:11:57;;;;;;;68.30;41.30;;;;;;;3.99;78.92;94753.19;1804537;79;20978;-48
2023/01/08 05:14:24;;;;;;;75.87;45.30;;;;;;;4.00;78.96;94752.59;1816813;78;20970;-48
2023/01/08 05:16:53;;;;;;;71.53;41.53;;;;;;;4.01;78.99;94750.84;1808335;78;20959;-48
2023/01/08 05:19:19;;;;;;;71.20;40.55;;;;;;;4.00;78.90;94753.95;1814423;79;21177;-48
2023/01/08 05:21:46;;;;;;;78.25;43.38;;;;;;;3.96;78.83;94751.28;1800090;79;21140;-49
2023/01/08 05:24:13;;;;;;;86.37;47.67;;;;;;;3.99;79.40;94753.77;1805960;78;21392;-49
2023/01/08 05:26:40;;;;;;;86.02;48.30;;;;;;;4.06;79.29;94753.72;1812342;78;21041;-47
2023/01/08 05:29:06;;;;;;;93.00;50.60;;;;;;;4.12;79.11;94752.08;1781676;79;21088;-49
2023/01/08 05:31:34;;;;;;;106.50;55.17;;;;;;;4.16;79.00;94746.78;1817012;79;21005;-47
2023/01/08 05:34:01;;;;;;;92.92;54.38;;;;;;;4.22;78.78;94739.70;1782483;79;21414;-49
2023/01/08 05:36:27;;;;;;;67.03;41.92;;;;;;;4.24;78.55;94737.34;1818497;78;21439;-48
2023/01/08 05:38:56;;;;;;;72.08;41.35;;;;;;;4.23;78.15;94736.41;1798071;79;20986;-48
2023/01/08 05:41:22;;;;;;;66.75;39.38;;;;;;;4.12;78.19;94734.39;1809197;78;20997;-49
2023/01/08 05:43:49;;;;;;;60.43;35.55;;;;;;;4.06;78.30;94740.86;1803916;78;21002;-49
2023/01/08 05:46:15;;;;;;;52.25;33.53;;;;;;;4.06;78.46;94749.02;1806184;79;21214;-48
2023/01/08 05:48:42;;;;;;;61.23;38.45;;;;;;;4.05;78.49;94744.00;1808369;79;21042;-47
2023/01/08 05:51:09;;;;;;;67.15;42.50;;;;;;;4.01;78.47;94749.48;1784638;79;20974;-48
2023/01/08 05:53:36;;;;;;;68.40;41.90;;;;;;;3.95;78.27;94747.02;1805656;79;20990;-47
2023/01/08 05:56:07;;;;;;;61.73;38.95;;;;;;;3.86;78.35;94745.95;1808677;78;21018;-48
2023/01/08 05:58:34;;;;;;;71.33;41.28;;;;;;;3.81;78.54;94748.52;1810248;78;21222;-48
2023/01/08 06:01:07;;;;;;;68.02;39.48;;;;;;;3.82;78.66;94743.83;1786732;79;21065;-47
2023/01/08 06:03:36;;;;;;;58.90;36.68;;;;;;;3.79;78.46;94744.07;1741083;81;20998;-48
2023/01/08 06:06:05;;;;;;;68.00;38.67;;;;;;;3.73;78.53;94738.86;1741790;80;21553;-48
2023/01/08 06:08:32;;;;;;;148.30;68.12;;;;;;;3.76;78.92;94748.97;1740199;81;21584;-48
2023/01/08 06:11:00;;;;;;;100.15;53.40;;;;;;;3.82;79.06;94741.11;1738701;81;22056;-50
2023/01/08 06:13:27;;;;;;;96.40;52.15;;;;;;;3.86;78.85;94739.91;1744378;81;21035;-50
2023/01/08 06:15:54;;;;;;;95.10;49.98;;;;;;;3.92;78.73;94741.61;1742699;81;21009;-49
2023/01/08 06:18:20;;;;;;;58.58;34.85;;;;;;;3.93;78.75;94741.79;1739821;81;21103;-48
2023/01/08 06:20:47;;;;;;;78.25;44.65;;;;;;;3.88;78.26;94732.71;1714314;82;21055;-47
2023/01/08 06:23:14;;;;;;;99.45;56.85;;;;;;;3.79;78.43;94749.52;1741848;81;21258;-49
2023/01/08 06:25:40;;;;;;;94.90;49.27;;;;;;;3.76;78.70;94749.53;1739352;81;21044;-48
2023/01/08 06:28:07;;;;;;;139.25;70.47;;;;;;;3.78;78.87;94739.81;1745410;81;21060;-49
2023/01/08 06:30:34;;;;;;;146.07;73.95;;;;;;;3.78;78.86;94746.61;1741819;81;21017;-51
2023/01/08 06:33:01;;;;;;;138.00;74.05;;;;;;;3.79;78.97;94746.79;1713212;81;21037;-48
2023/01/08 06:35:29;;;;;;;162.82;81.08;;;;;;;3.80;78.91;94751.63;1709102;82;21480;-48
2023/01/08 06:37:56;;;;;;;122.35;63.38;;;;;;;3.76;78.81;94751.69;1716049;82;21120;-53
2023/01/08 06:40:23;;;;;;;116.85;60.28;;;;;;;3.70;78.87;94749.20;1713267;82;21130;-50
2023/01/08 06:42:50;;;;;;;91.42;48.48;;;;;;;3.64;78.92;94746.73;1708582;83;21050;-51
2023/01/08 06:45:17;;;;;;;53.98;34.67;;;;;;;3.63;79.05;94750.63;1717822;82;21150;-49
2023/01/08 06:47:44;;;;;;;53.78;33.02;;;;;;;3.66;79.13;94755.87;1722509;82;21993;-51
2023/01/08 06:50:11;;;;;;;55.45;36.10;;;;;;;3.68;79.14;94755.63;1717558;82;21029;-49
2023/01/08 06:52:38;;;;;;;59.08;37.10;;;;;;;3.70;79.04;94750.55;1710308;82;21118;-49
2023/01/08 06:55:07;;;;;;;57.88;38.28;;;;;;;3.75;79.17;94755.58;1712249;82;21143;-48
2023/01/08 06:57:33;;;;;;;60.85;39.25;;;;;;;3.82;79.13;94748.70;1707460;83;21066;-49
2023/01/08 07:00:00;;;;;;;67.75;41.88;;;;;;;3.85;78.66;94738.36;1750681;78;21217;-49
2023/01/08 07:02:27;;;;;;;74.80;44.63;;;;;;;3.84;78.69;94742.27;1801461;78;20959;-49
2023/01/08 07:04:54;;;;;;;84.37;48.50;;;;;;;3.90;78.78;94740.64;1790052;79;20936;-50
2023/01/08 07:07:21;;;;;;;88.27;51.15;;;;;;;4.00;78.60;94743.06;1789847;79;20950;-49
2023/01/08 07:09:48;;;;;;;105.97;63.30;;;;;;;4.04;78.26;94740.49;1789222;79;21020;-50
2023/01/08 07:12:15;;;;;;;107.83;61.95;;;;;;;4.06;78.16;94738.14;1776509;79;21953;-48
2023/01/08 07:14:43;;;;;;;101.72;61.45;;;;;;;4.08;78.51;94742.58;1757394;80;22252;-49
2023/01/08 07:17:09;;;;;;;108.37;61.83;;;;;;;4.15;78.17;94736.30;1747249;82;21112;-50
2023/01/08 07:19:36;;;;;;;84.47;49.25;;;;;;;4.13;77.83;94740.80;1751040;81;21056;-51
2023/01/08 07:22:03;;;;;;;91.40;50.33;;;;;;;4.09;77.61;94740.65;1745248;81;20942;-49
2023/01/08 07:24:30;;;;;;;102.07;62.98;;;;;;;4.08;77.86;94745.30;1748834;81;21336;-48
2023/01/08 07:26:57;;;;;;;110.57;63.58;;;;;;;4.15;78.16;94749.91;1748987;81;21182;-48
2023/01/08 07:29:23;;;;;;;100.80;65.47;;;;;;;4.21;77.94;94746.34;1752100;81;21137;-48
2023/01/08 07:31:50;;;;;;;93.67;58.20;;;;;;;4.23;77.64;94750.78;1748715;81;21095;-49
2023/01/08 07:34:17;;;;;;;108.42;64.58;;;;;;;4.20;77.53;94755.68;1753359;80;21108;-49
2023/01/08 07:36:44;;;;;;;113.17;65.00;;;;;;;4.08;77.44;94759.52;1774986;79;22371;-49
2023/01/08 07:39:10;;;;;;;103.62;60.65;;;;;;;3.92;77.99;94754.64;1749794;80;20981;-50
2023/01/08 07:41:37;;;;;;;126.97;73.17;;;;;;;3.85;78.20;94761.50;1764644;80;21036;-48
2023/01/08 07:44:04;;;;;;;120.30;68.85;;;;;;;3.78;78.43;94764.30;1737306;80;20974;-49
2023/01/08 07:46:31;;;;;;;97.88;59.33;;;;;;;3.76;78.74;94762.56;1763553;81;21010;-49
2023/01/08 07:48:58;;;;;;;100.10;58.55;;;;;;;3.79;79.15;94763.11;1780386;80;21219;-49
2023/01/08 07:51:24;;;;;;;99.17;58.55;;;;;;;3.77;79.46;94760.03;1763540;80;21248;-49
2023/01/08 07:53:51;;;;;;;116.60;73.12;;;;;;;3.77;79.26;94757.31;1755372;80;21058;-49
2023/01/08 07:56:18;;;;;;;94.35;62.23;;;;;;;3.72;79.41;94756.97;1759900;80;21463;-50
2023/01/08 07:58:45;;;;;;;84.80;54.25;;;;;;;3.74;79.54;94763.56;1756477;80;21135;-49
2023/01/08 08:01:12;;;;;;;91.92;58.63;;;;;;;3.75;79.57;94763.74;1744578;80;21923;-49
2023/01/08 08:03:39;;;;;;;80.17;50.50;;;;;;;3.80;79.89;94751.05;1777550;79;21565;-49
2023/01/08 08:06:06;;;;;;;90.50;57.27;;;;;;;3.86;79.75;94743.98;1769269;80;21470;-49
2023/01/08 08:08:34;;;;;;;76.75;51.92;;;;;;;3.83;79.82;94754.93;1761026;80;21077;-50
2023/01/08 08:11:02;;;;;;;87.20;58.80;;;;;;;3.85;79.96;94745.77;1767278;80;21522;-50
2023/01/08 08:13:29;;;;;;;91.00;57.73;;;;;;;3.86;80.02;94736.43;1766744;80;22159;-49
2023/01/08 08:16:01;;;;;;;88.78;55.38;;;;;;;3.95;80.10;94744.88;1768135;80;21105;-50
2023/01/08 08:18:28;;;;;;;78.97;47.95;;;;;;;4.00;79.77;94741.13;1770257;80;21544;-49
2023/01/08 08:20:54;;;;;;;96.90;64.90;;;;;;;4.04;79.63;94744.58;1779345;79;20993;-49
2023/01/08 08:23:23;;;;;;;76.05;47.80;;;;;;;4.07;79.71;94743.77;1773770;80;20975;-49
2023/01/08 08:25:50;;;;;;;81.28;53.58;;;;;;;4.14;79.74;94738.83;1752002;80;21482;-49
2023/01/08 08:28:17;;;;;;;68.33;46.13;;;;;;;4.22;79.91;94745.16;1763306;80;21562;-49
2023/01/08 08:30:44;;;;;;;88.55;48.90;;;;;;;4.35;79.68;94744.81;1768128;80;21439;-50
2023/01/08 08:33:11;;;;;;;77.22;49.77;;;;;;;4.47;79.34;94737.48;1721508;80;21457;-51
2023/01/08 08:35:37;;;;;;;76.42;52.17;;;;;;;4.60;79.38;94726.20;1780462;80;21485;-49
2023/01/08 08:38:04;;;;;;;84.50;57.23;;;;;;;4.68;79.04;94723.58;1759207;80;21550;-48
2023/01/08 08:40:31;;;;;;;82.12;51.80;;;;;;;4.72;78.79;94722.94;1761868;80;21061;-48
2023/01/08 08:43:00;;;;;;;76.02;50.88;;;;;;;4.82;78.67;94723.97;1753643;80;21163;-49
2023/01/08 08:45:28;;;;;;;73.92;52.73;;;;;;;4.86;78.13;94713.20;1742816;80;20968;-49
2023/01/08 08:47:55;;;;;;;92.02;60.83;;;;;;;4.84;77.85;94730.56;1775287;80;21539;-49
2023/01/08 08:50:22;;;;;;;55.15;35.85;;;;;;;4.83;77.82;94730.36;1780143;79;21415;-49
2023/01/08 08:52:49;;;;;;;53.45;37.03;;;;;;;4.91;77.95;94727.73;1770106;80;21053;-48
2023/01/08 08:55:16;;;;;;;63.15;39.15;;;;;;;4.95;77.32;94716.17;1769165;80;21033;-49
2023/01/08 08:57:44;;;;;;;59.10;38.02;;;;;;;4.94;77.01;94722.81;1771543;79;21017;-49
2023/01/08 09:00:13;;;;;;;55.80;38.80;;;;;;;4.92;76.81;94730.63;1774169;79;21016;-49
2023/01/08 09:02:40;;;;;;;65.62;44.38;;;;;;;4.88;76.91;94713.56;1808729;78;21817;-50
2023/01/08 09:05:08;;;;;;;56.88;37.65;;;;;;;4.90;77.25;94719.37;1809384;78;21543;-50
2023/01/08 09:07:35;;;;;;;73.87;45.95;;;;;;;4.99;77.20;94719.61;1809209;78;21030;-50
2023/01/08 09:10:05;;;;;;;69.82;45.03;;;;;;;5.04;77.00;94716.45;1806280;79;21050;-50
2023/01/08 09:12:32;;;;;;;74.03;47.83;;;;;;;5.06;76.82;94703.75;1801962;79;21034;-49
2023/01/08 09:14:59;;;;;;;66.02;40.75;;;;;;;5.01;76.64;94704.98;1803094;79;21143;-49
2023/01/08 09:17:25;;;;;;;85.53;49.15;;;;;;;5.05;76.88;94704.36;1800937;79;21053;-49
2023/01/08 09:19:52;;;;;;;67.75;43.80;;;;;;;5.07;76.80;94699.84;1777651;79;21034;-51
2023/01/08 09:22:19;;;;;;;51.48;34.38;;;;;;;5.15;77.10;94696.59;1790744;78;21013;-50
2023/01/08 09:24:46;;;;;;;42.05;28.67;;;;;;;5.24;76.60;94699.58;1813278;78;21052;-50
2023/01/08 09:27:14;;;;;;;47.73;30.23;;;;;;;5.29;76.38;94684.09;1813843;78;21236;-50
2023/01/08 09:29:40;;;;;;;44.35;28.77;;;;;;;5.32;75.82;94684.62;1803275;79;21077;-50
2023/01/08 09:32:07;;;;;;;39.80;26.12;;;;;;;5.32;75.63;94681.91;1698567;80;21646;-49
2023/01/08 09:34:35;;;;;;;46.33;26.93;;;;;;;5.34;75.64;94686.34;1753290;80;21465;-51
2023/01/08 09:37:02;;;;;;;38.23;25.72;;;;;;;5.39;75.37;94674.98;1756061;80;21542;-49
2023/01/08 09:39:30;;;;;;;37.53;21.57;;;;;;;5.44;75.33;94682.68;1770639;81;21177;-48
2023/01/08 09:41:59;;;;;;;34.23;21.97;;;;;;;5.45;75.08;94684.98;1766198;80;21009;-49
2023/01/08 09:44:29;;;;;;;31.10;21.73;;;;;;;5.47;74.93;94683.99;1731091;80;21039;-50
2023/01/08 09:46:56;;;;;;;42.50;24.20;;;;;;;5.44;74.72;94666.31;1756330;79;21001;-50
2023/01/08 09:49:39;;;;;;;40.30;26.68;;;;;;;5.43;74.81;94662.05;1779317;80;21016;-51
2023/01/08 09:52:11;;;;;;;37.38;25.60;;;;;;;5.49;75.01;94659.01;1706025;81;21169;-50
2023/01/08 09:54:39;;;;;;;34.38;22.67;;;;;;;5.66;74.85;94656.56;1725064;82;20966;-49
2023/01/08 09:57:13;;;;;;;41.63;25.23;;;;;;;5.79;74.28;94652.06;1726239;82;20989;-50
2023/01/08 09:59:41;;;;;;;51.25;27.10;;;;;;;5.82;73.92;94653.95;1716221;82;21314;-51
2023/01/08 10:02:22;;;;;;;40.55;25.10;;;;;;;5.86;73.82;94643.73;1724550;82;21506;-50
2023/01/08 10:04:59;;;;;;;37.58;24.65;;;;;;;5.90;73.61;94641.12;1689542;82;21228;-53
2023/01/08 10:07:27;;;;;;;32.25;22.75;;;;;;;5.93;73.36;94639.52;1625841;86;21140;-53
2023/01/08 10:09:54;;;;;;;37.10;21.62;;;;;;;6.11;73.41;94635.81;1610112;87;21261;-53
2023/01/08 10:12:32;;;;;;;37.17;23.80;;;;;;;6.29;73.11;94631.54;1597216;88;21172;-55
2023/01/08 10:15:03;;;;;;;38.58;21.40;;;;;;;6.43;72.32;94638.66;1590389;88;21081;-53
2023/01/08 10:17:38;;;;;;;29.57;20.92;;;;;;;6.50;71.55;94635.18;1550956;90;21168;-53
2023/01/08 10:20:18;;;;;;;23.27;16.62;;;;;;;6.67;71.73;94623.70;1543626;92;21596;-53
2023/01/08 10:22:46;;;;;;;39.38;18.98;;;;;;;7.13;70.64;94621.43;1524961;92;21091;-53
2023/01/08 10:25:18;;;;;;;30.35;18.62;;;;;;;7.52;68.70;94620.61;1543523;91;22677;-53
2023/01/08 10:27:49;;;;;;;26.95;17.52;;;;;;;7.59;67.67;94623.77;1515773;93;21124;-53
2023/01/08 10:30:23;;;;;;;29.85;16.70;;;;;;;7.56;67.32;94621.89;1522753;93;21257;-53
2023/01/08 10:32:54;;;;;;;24.30;15.40;;;;;;;7.64;67.24;94615.02;1520374;93;21101;-53
2023/01/08 10:35:32;;;;;;;20.00;14.65;;;;;;;7.69;66.59;94616.64;1518288;92;21179;-53
2023/01/08 10:37:59;;;;;;;18.65;14.73;;;;;;;7.71;66.17;94610.13;1484082;93;21205;-53
2023/01/08 10:40:46;;;;;;;22.13;14.78;;;;;;;7.85;66.01;94615.23;1472657;96;21053;-50
2023/01/08 10:43:32;;;;;;;21.80;14.60;;;;;;;8.23;65.74;94607.17;1479016;95;21321;-52
2023/01/08 10:46:07;;;;;;;19.12;12.55;;;;;;;8.53;64.36;94604.70;1527263;89;21150;-51
2023/01/08 10:48:41;;;;;;;18.55;11.18;;;;;;;8.46;63.64;94593.92;1609412;86;21097;-50
2023/01/08 10:51:24;;;;;;;34.15;14.78;;;;;;;8.48;64.03;94584.69;1581291;89;21170;-51
2023/01/08 10:53:52;;;;;;;17.90;13.17;;;;;;;8.63;63.87;94592.62;1550532;90;21131;-52
2023/01/08 10:56:27;;;;;;;23.12;14.95;;;;;;;8.81;63.39;94588.73;1535758;91;21906;-55
2023/01/08 10:58:54;;;;;;;23.57;13.78;;;;;;;9.25;63.05;94584.98;1525911;92;21064;-49
2023/01/08 11:01:26;;;;;;;18.25;13.08;;;;;;;9.62;61.71;94581.36;1500750;93;21161;-49
2023/01/08 11:04:00;;;;;;;29.83;14.83;;;;;;;9.80;60.93;94574.66;1511885;93;21196;-50
2023/01/08 11:06:36;;;;;;;21.97;14.43;;;;;;;9.80;59.95;94576.03;1509286;93;21153;-49
2023/01/08 11:09:08;;;;;;;18.92;14.23;;;;;;;9.54;59.93;94571.81;1541038;90;21564;-49
2023/01/08 11:11:36;;;;;;;27.00;15.90;;;;;;;9.34;60.26;94560.34;1526980;92;21191;-49
2023/01/08 11:14:07;;;;;;;21.48;15.68;;;;;;;9.30;60.50;94554.22;1514051;92;21119;-50
2023/01/08 11:16:39;;;;;;;23.27;15.80;;;;;;;9.33;60.39;94551.95;1526610;91;21239;-50
2023/01/08 11:19:26;;;;;;;25.68;14.23;;;;;;;9.29;60.26;94558.17;1522624;92;21786;-49
2023/01/08 11:22:00;;;;;;;23.30;15.40;;;;;;;9.33;60.64;94543.72;1552069;90;21463;-50
2023/01/08 11:24:34;;;;;;;24.07;15.83;;;;;;;9.59;60.14;94547.31;1566523;89;21080;-51
2023/01/08 11:27:19;;;;;;;25.55;14.95;;;;;;;9.60;59.57;94548.84;1576957;89;21084;-49
2023/01/08 11:30:15;;;;;;;19.48;13.48;;;;;;;9.39;59.61;94548.80;1592412;89;21060;-50
2023/01/08 11:32:56;;;;;;;26.23;15.30;;;;;;;9.23;60.25;94539.37;1588402;88;21176;-52
2023/01/08 11:35:59;;;;;;;20.70;14.33;;;;;;;9.20;60.71;94532.00;1589374;89;21362;-51